Time;durP1;ratioP1;P1;durP2;ratioP2;P2;SDS_P1;SDS_P2;PMS_P1;PMS_P2;Temp;Humidity;BMP_temperature;BMP_pressure;BME280_temperature;BME280_humidity;BME280_pressure;Samples;Min_cycle;Max_cycle;Signal;HPM_P1;HPM_P2
2022/09/22 00:01:23;;;;;;;;;;;;;;;;;;5076316;28;1209;-74
2022/09/22 00:03:50;;;;;;;;;;;;;;;;;;5095311;28;1327;-74
2022/09/22 00:06:17;;;;;;;;;;;;;;;;;;5076581;28;1237;-74
2022/09/22 00:08:44;;;;;;;;;;;;;;;;;;5094707;28;1067;-74
2022/09/22 00:11:15;;;;;;;;;;;;;;;;;;5076180;28;1140;-73
2022/09/22 00:13:43;;;;;;;;;;;;;;;;;;5094306;28;1431;-74
2022/09/22 00:16:09;;;;;;;;;;;;;;;;;;5094055;28;1918;-73
2022/09/22 00:18:36;;;;;;;;;;;;;;;;;;5075924;28;1274;-74
2022/09/22 00:21:06;;;;;;;;;;;;;;;;;;5094181;28;1071;-73
2022/09/22 00:23:33;;;;;;;;;;;;;;;;;;5094129;28;1313;-74
2022/09/22 00:26:02;;;;;;;;;;;;;;;;;;5093964;28;800;-74
2022/09/22 00:28:28;;;;;;;;;;;;;;;;;;5076047;28;1192;-74
2022/09/22 00:30:56;;;;;;;;;;;;;;;;;;5093850;28;1062;-73
2022/09/22 00:33:22;;;;;;;;;;;;;;;;;;5093560;28;1387;-74
2022/09/22 00:35:56;;;;;;;;;;;;;;;;;;5093964;28;1930;-73
2022/09/22 00:38:22;;;;;;;;;;;;;;;;;;5093852;28;1106;-74
2022/09/22 00:40:48;;;;;;;;;;;;;;;;;;5093756;28;1145;-72
2022/09/22 00:43:15;;;;;;;;;;;;;;;;;;5093379;28;1293;-73
2022/09/22 00:45:41;;;;;;;;;;;;;;;;;;5093900;28;869;-73
2022/09/22 00:48:08;;;;;;;;;;;;;;;;;;5093469;28;1123;-74
2022/09/22 00:50:35;;;;;;;;;;;;;;;;;;5092803;28;643;-74
2022/09/22 00:53:02;;;;;;;;;;;;;;;;;;5093695;28;1310;-73
2022/09/22 00:55:29;;;;;;;;;;;;;;;;;;5075652;28;1910;-73
2022/09/22 00:57:55;;;;;;;;;;;;;;;;;;5094155;28;964;-74
2022/09/22 01:00:22;;;;;;;;;;;;;;;;;;5093295;28;1134;-73
2022/09/22 01:02:48;;;;;;;;;;;;;;;;;;5093020;28;1316;-71
2022/09/22 01:05:16;;;;;;;;;;;;;;;;;;5093415;28;1071;-73
2022/09/22 01:07:42;;;;;;;;;;;;;;;;;;5093415;28;810;-73
2022/09/22 01:10:10;;;;;;;;;;;;;;;;;;5093412;28;1134;-74
2022/09/22 01:12:36;;;;;;;;;;;;;;;;;;5092871;28;925;-74
2022/09/22 01:15:05;;;;;;;;;;;;;;;;;;5093251;28;1425;-74
2022/09/22 01:17:32;;;;;;;;;;;;;;;;;;5089726;28;1960;-73
2022/09/22 01:20:14;;;;;;;;;;;;;;;;;;5093220;28;1071;-73
2022/09/22 01:22:52;;;;;;;;;;;;;;;;;;5089469;28;1027;-73
2022/09/22 01:25:37;;;;;;;;;;;;;;;;;;5092849;28;878;-73
2022/09/22 01:28:13;;;;;;;;;;;;;;;;;;5092987;28;905;-73
2022/09/22 01:30:41;;;;;;;;;;;;;;;;;;5074428;28;1045;-72
2022/09/22 01:33:13;;;;;;;;;;;;;;;;;;5092300;28;1386;-73
2022/09/22 01:35:41;;;;;;;;;;;;;;;;;;5092823;28;1910;-73
2022/09/22 01:38:08;;;;;;;;;;;;;;;;;;5092605;28;798;-73
2022/09/22 01:40:37;;;;;;;;;;;;;;;;;;5092751;28;960;-74
2022/09/22 01:43:07;;;;;;;;;;;;;;;;;;5092131;28;1770;-74
2022/09/22 01:45:34;;;;;;;;;;;;;;;;;;5092866;28;894;-74
2022/09/22 01:48:04;;;;;;;;;;;;;;;;;;5092446;28;1119;-74
2022/09/22 01:50:30;;;;;;;;;;;;;;;;;;5074461;28;1136;-73
2022/09/22 01:52:57;;;;;;;;;;;;;;;;;;5092140;28;1399;-74
2022/09/22 01:55:25;;;;;;;;;;;;;;;;;;5092379;28;953;-73
2022/09/22 01:57:53;;;;;;;;;;;;;;;;;;5074147;28;1910;-74
2022/09/22 02:00:19;;;;;;;;;;;;;;;;;;5092511;28;1020;-74
2022/09/22 02:02:47;;;;;;;;;;;;;;;;;;5092046;28;1067;-74
2022/09/22 02:05:17;;;;;;;;;;;;;;;;;;5092292;28;1040;-73
2022/09/22 02:07:43;;;;;;;;;;;;;;;;;;5092379;28;1137;-74
2022/09/22 02:10:11;;;;;;;;;;;;;;;;;;5092248;28;1047;-74
2022/09/22 02:12:37;;;;;;;;;;;;;;;;;;5091803;28;1059;-74
2022/09/22 02:15:04;;;;;;;;;;;;;;;;;;5092054;28;1292;-74
2022/09/22 02:17:30;;;;;;;;;;;;;;;;;;5091974;28;1917;-73
2022/09/22 02:19:56;;;;;;;;;;;;;;;;;;5092100;28;961;-73
2022/09/22 02:22:24;;;;;;;;;;;;;;;;;;5091591;28;1071;-74
2022/09/22 02:24:50;;;;;;;;;;;;;;;;;;5091913;28;1389;-73
2022/09/22 02:27:19;;;;;;;;;;;;;;;;;;5091774;28;1967;-74
2022/09/22 02:29:46;;;;;;;;;;;;;;;;;;5091719;28;1071;-74
2022/09/22 02:32:13;;;;;;;;;;;;;;;;;;5091415;28;1060;-74
2022/09/22 02:34:39;;;;;;;;;;;;;;;;;;5091684;28;1298;-73
2022/09/22 02:37:06;;;;;;;;;;;;;;;;;;5091585;28;1123;-73
2022/09/22 02:39:36;;;;;;;;;;;;;;;;;;5091795;28;964;-73
2022/09/22 02:42:06;;;;;;;;;;;;;;;;;;5091142;28;1063;-73
2022/09/22 02:44:34;;;;;;;;;;;;;;;;;;5091626;28;1379;-73
2022/09/22 02:47:01;;;;;;;;;;;;;;;;;;5091617;28;1914;-75
2022/09/22 02:49:27;;;;;;;;;;;;;;;;;;5073363;28;1292;-74
2022/09/22 02:51:54;;;;;;;;;;;;;;;;;;5091350;28;1078;-74
2022/09/22 02:54:20;;;;;;;;;;;;;;;;;;5073137;28;1315;-74
2022/09/22 02:56:48;;;;;;;;;;;;;;;;;;5061653;22;1915;-72
2022/09/22 02:59:14;;;;;;;;;;;;;;;;;;5011152;28;1534;-72
2022/09/22 03:01:40;;;;;;;;;;;;;;;;;;5011321;28;989;-69
2022/09/22 03:04:06;;;;;;;;;;;;;;;;;;5011657;28;878;-72
2022/09/22 03:06:33;;;;;;;;;;;;;;;;;;5001721;28;1958;-72
2022/09/22 03:08:59;;;;;;;;;;;;;;;;;;5011935;28;958;-72
2022/09/22 03:11:26;;;;;;;;;;;;;;;;;;5011325;28;1068;-72
2022/09/22 03:13:53;;;;;;;;;;;;;;;;;;5014796;28;1159;-71
2022/09/22 03:16:19;;;;;;;;;;;;;;;;;;5015611;28;1368;-71
2022/09/22 03:18:45;;;;;;;;;;;;;;;;;;5015419;28;846;-71
2022/09/22 03:21:12;;;;;;;;;;;;;;;;;;5015587;28;1002;-69
2022/09/22 03:23:38;;;;;;;;;;;;;;;;;;5015177;28;1287;-71
2022/09/22 03:26:04;;;;;;;;;;;;;;;;;;5031669;28;1910;-71
2022/09/22 03:28:30;;;;;;;;;;;;;;;;;;5050620;28;1131;-71
2022/09/22 03:30:58;;;;;;;;;;;;;;;;;;5034766;28;901;-71
2022/09/22 03:33:24;;;;;;;;;;;;;;;;;;5050009;28;1382;-71
2022/09/22 03:35:50;;;;;;;;;;;;;;;;;;5034681;28;1302;-71
2022/09/22 03:38:16;;;;;;;;;;;;;;;;;;5035014;28;1080;-71
2022/09/22 03:40:48;;;;;;;;;;;;;;;;;;5034770;28;1074;-71
2022/09/22 03:43:16;;;;;;;;;;;;;;;;;;5034762;28;775;-71
2022/09/22 03:45:42;;;;;;;;;;;;;;;;;;5034644;28;1384;-71
2022/09/22 03:48:09;;;;;;;;;;;;;;;;;;5034803;28;1977;-71
2022/09/22 03:50:36;;;;;;;;;;;;;;;;;;5050166;28;1188;-71
2022/09/22 03:53:02;;;;;;;;;;;;;;;;;;5034439;28;1100;-71
2022/09/22 03:55:28;;;;;;;;;;;;;;;;;;5035150;28;1317;-71
2022/09/22 03:57:55;;;;;;;;;;;;;;;;;;5049989;28;1252;-71
2022/09/22 04:00:21;;;;;;;;;;;;;;;;;;5034632;28;716;-71
2022/09/22 04:02:47;;;;;;;;;;;;;;;;;;5049510;28;1214;-71
2022/09/22 04:05:14;;;;;;;;;;;;;;;;;;5034404;28;1306;-70
2022/09/22 04:07:40;;;;;;;;;;;;;;;;;;5034423;28;1918;-71
2022/09/22 04:10:07;;;;;;;;;;;;;;;;;;5034605;28;898;-71
2022/09/22 04:12:34;;;;;;;;;;;;;;;;;;5033726;28;1071;-71
2022/09/22 04:15:00;;;;;;;;;;;;;;;;;;5034577;28;939;-69
2022/09/22 04:17:26;;;;;;;;;;;;;;;;;;5034089;28;1322;-71
2022/09/22 04:19:54;;;;;;;;;;;;;;;;;;5049580;28;1109;-69
2022/09/22 04:22:21;;;;;;;;;;;;;;;;;;5033732;28;1064;-71
2022/09/22 04:24:47;;;;;;;;;;;;;;;;;;5032864;28;1108;-71
2022/09/22 04:27:13;;;;;;;;;;;;;;;;;;5033979;28;1906;-72
2022/09/22 04:29:40;;;;;;;;;;;;;;;;;;5033904;28;1181;-71
2022/09/22 04:32:06;;;;;;;;;;;;;;;;;;5033679;28;1022;-71
2022/09/22 04:34:32;;;;;;;;;;;;;;;;;;5021495;28;1468;-71
2022/09/22 04:36:58;;;;;;;;;;;;;;;;;;5010926;28;1605;-72
2022/09/22 04:39:27;;;;;;;;;;;;;;;;;;5012647;28;1472;-73
2022/09/22 04:41:53;;;;;;;;;;;;;;;;;;5013708;28;1241;-72
2022/09/22 04:44:19;;;;;;;;;;;;;;;;;;5014090;28;1171;-72
2022/09/22 04:46:46;;;;;;;;;;;;;;;;;;5011826;28;1974;-72
2022/09/22 04:49:12;;;;;;;;;;;;;;;;;;5013338;28;1360;-72
2022/09/22 04:51:38;;;;;;;;;;;;;;;;;;5013334;28;1202;-73
2022/09/22 04:54:04;;;;;;;;;;;;;;;;;;5013753;28;736;-72
2022/09/22 04:56:32;;;;;;;;;;;;;;;;;;5011137;28;1412;-72
2022/09/22 04:58:58;;;;;;;;;;;;;;;;;;5013926;28;1205;-72
2022/09/22 05:01:26;;;;;;;;;;;;;;;;;;5013575;28;1076;-72
2022/09/22 05:03:52;;;;;;;;;;;;;;;;;;5028875;28;1147;-72
2022/09/22 05:06:18;;;;;;;;;;;;;;;;;;5013505;28;1332;-72
2022/09/22 05:08:44;;;;;;;;;;;;;;;;;;5013814;28;1977;-72
2022/09/22 05:11:11;;;;;;;;;;;;;;;;;;5013686;28;1088;-72
2022/09/22 05:13:39;;;;;;;;;;;;;;;;;;5013381;28;1060;-72
2022/09/22 05:16:07;;;;;;;;;;;;;;;;;;5011593;28;1546;-72
2022/09/22 05:18:33;;;;;;;;;;;;;;;;;;5027948;28;1420;-72
2022/09/22 05:20:59;;;;;;;;;;;;;;;;;;5015940;28;1340;-72
2022/09/22 05:23:25;;;;;;;;;;;;;;;;;;5013194;28;985;-72
2022/09/22 05:25:51;;;;;;;;;;;;;;;;;;5012558;28;1409;-72
2022/09/22 05:28:19;;;;;;;;;;;;;;;;;;5013193;28;1918;-72
2022/09/22 05:30:48;;;;;;;;;;;;;;;;;;5013174;28;1068;-72
2022/09/22 05:33:14;;;;;;;;;;;;;;;;;;5008808;28;1365;-72
2022/09/22 05:35:41;;;;;;;;;;;;;;;;;;4997286;28;1519;-72
2022/09/22 05:38:07;;;;;;;;;;;;;;;;;;5008724;28;1428;-72
2022/09/22 05:40:33;;;;;;;;;;;;;;;;;;5010022;28;1443;-72
2022/09/22 05:42:59;;;;;;;;;;;;;;;;;;5010194;28;1455;-73
2022/09/22 05:45:25;;;;;;;;;;;;;;;;;;5009096;28;1416;-73
2022/09/22 05:47:53;;;;;;;;;;;;;;;;;;5018004;28;1977;-72
2022/09/22 05:50:20;;;;;;;;;;;;;;;;;;5012480;28;1194;-72
2022/09/22 05:52:46;;;;;;;;;;;;;;;;;;5011643;28;1139;-73
2022/09/22 05:55:12;;;;;;;;;;;;;;;;;;5010238;28;1475;-70
2022/09/22 05:57:39;;;;;;;;;;;;;;;;;;5010665;28;1401;-72
2022/09/22 06:00:06;;;;;;;;;;;;;;;;;;5012460;28;1214;-72
2022/09/22 06:02:37;;;;;;;;;;;;;;;;;;5012043;28;636;-73
2022/09/22 06:05:05;;;;;;;;;;;;;;;;;;5008284;28;1448;-72
2022/09/22 06:07:31;;;;;;;;;;;;;;;;;;5011106;28;1922;-71
2022/09/22 06:09:57;;;;;;;;;;;;;;;;;;5012463;28;1175;-71
2022/09/22 06:12:24;;;;;;;;;;;;;;;;;;5012117;28;1071;-71
2022/09/22 06:14:50;;;;;;;;;;;;;;;;;;5012057;28;1076;-70
2022/09/22 06:17:16;;;;;;;;;;;;;;;;;;5010505;28;1464;-72
2022/09/22 06:19:48;;;;;;;;;;;;;;;;;;5010901;28;1389;-72
2022/09/22 06:22:16;;;;;;;;;;;;;;;;;;5017081;28;1217;-72
2022/09/22 06:24:43;;;;;;;;;;;;;;;;;;5012180;28;1119;-71
2022/09/22 06:27:09;;;;;;;;;;;;;;;;;;5010249;28;1918;-73
2022/09/22 06:29:36;;;;;;;;;;;;;;;;;;5011618;28;1156;-71
2022/09/22 06:32:03;;;;;;;;;;;;;;;;;;5011948;28;1155;-72
2022/09/22 06:34:32;;;;;;;;;;;;;;;;;;5011814;28;1081;-71
2022/09/22 06:36:58;;;;;;;;;;;;;;;;;;5011225;28;1404;-72
2022/09/22 06:39:26;;;;;;;;;;;;;;;;;;5010708;28;1060;-72
2022/09/22 06:41:52;;;;;;;;;;;;;;;;;;5007216;28;1794;-73
2022/09/22 06:44:18;;;;;;;;;;;;;;;;;;5032803;28;1185;-70
2022/09/22 06:46:45;;;;;;;;;;;;;;;;;;5014737;28;1459;-72
2022/09/22 06:49:12;;;;;;;;;;;;;;;;;;5014149;28;1985;-72
2022/09/22 06:51:38;;;;;;;;;;;;;;;;;;5008887;28;1399;-72
2022/09/22 06:54:05;;;;;;;;;;;;;;;;;;5010224;28;1222;-72
2022/09/22 06:56:34;;;;;;;;;;;;;;;;;;5010291;28;1410;-73
2022/09/22 06:59:00;;;;;;;;;;;;;;;;;;5006870;28;1310;-72
2022/09/22 07:01:27;;;;;;;;;;;;;;;;;;5008045;28;1463;-72
2022/09/22 07:03:53;;;;;;;;;;;;;;;;;;5008959;28;1217;-72
2022/09/22 07:06:20;;;;;;;;;;;;;;;;;;5013213;28;1460;-70
2022/09/22 07:08:47;;;;;;;;;;;;;;;;;;5031442;28;1914;-74
2022/09/22 07:11:14;;;;;;;;;;;;;;;;;;5001048;28;1275;-73
2022/09/22 07:13:42;;;;;;;;;;;;;;;;;;5013657;28;1523;-72
2022/09/22 07:16:08;;;;;;;;;;;;;;;;;;5011172;28;1336;-72
2022/09/22 07:18:35;;;;;;;;;;;;;;;;;;5012932;28;1460;-72
2022/09/22 07:21:02;;;;;;;;;;;;;;;;;;5031366;28;961;-71
2022/09/22 07:23:28;;;;;;;;;;;;;;;;;;5029727;28;1242;-73
2022/09/22 07:25:55;;;;;;;;;;;;;;;;;;5030779;28;1404;-71
2022/09/22 07:28:22;;;;;;;;;;;;;;;;;;5031124;28;1971;-72
2022/09/22 07:30:49;;;;;;;;;;;;;;;;;;5041533;28;1338;-70
2022/09/22 07:33:19;;;;;;;;;;;;;;;;;;5006610;28;1238;-72
2022/09/22 07:35:46;;;;;;;;;;;;;;;;;;4997945;28;1375;-71
2022/09/22 07:38:12;;;;;;;;;;;;;;;;;;5008841;28;1451;-71
2022/09/22 07:40:38;;;;;;;;;;;;;;;;;;5009751;28;1487;-71
2022/09/22 07:43:04;;;;;;;;;;;;;;;;;;5008585;28;1608;-72
2022/09/22 07:45:30;;;;;;;;;;;;;;;;;;5010917;28;1397;-72
2022/09/22 07:50:41;;;;;;;;;;;;;;;;;;5010305;28;1419;-71
2022/09/22 07:53:08;;;;;;;;;;;;;;;;;;5008624;28;1658;-69
2022/09/22 07:55:35;;;;;;;;;;;;;;;;;;5009640;28;1459;-71
2022/09/22 07:58:02;;;;;;;;;;;;;;;;;;5009288;28;1182;-71
2022/09/22 08:00:31;;;;;;;;;;;;;;;;;;5014362;28;1087;-72
2022/09/22 08:03:00;;;;;;;;;;;;;;;;;;5028859;28;1421;-72
2022/09/22 08:05:26;;;;;;;;;;;;;;;;;;5012793;28;1407;-72
2022/09/22 08:07:56;;;;;;;;;;;;;;;;;;5013137;28;1979;-73
2022/09/22 08:10:22;;;;;;;;;;;;;;;;;;5013843;28;1407;-73
2022/09/22 08:12:48;;;;;;;;;;;;;;;;;;5013016;28;1166;-71
2022/09/22 08:15:14;;;;;;;;;;;;;;;;;;5014399;28;1541;-70
2022/09/22 08:17:42;;;;;;;;;;;;;;;;;;5007592;28;1894;-72
2022/09/22 08:20:11;;;;;;;;;;;;;;;;;;5011099;28;1861;-70
2022/09/22 08:22:37;;;;;;;;;;;;;;;;;;5014205;28;1152;-72
2022/09/22 08:25:04;;;;;;;;;;;;;;;;;;5029788;28;1211;-72
2022/09/22 08:27:30;;;;;;;;;;;;;;;;;;5013337;28;1436;-71
2022/09/22 08:29:57;;;;;;;;;;;;;;;;;;5014543;28;1218;-72
2022/09/22 08:32:25;;;;;;;;;;;;;;;;;;5013160;28;1481;-72
2022/09/22 08:34:54;;;;;;;;;;;;;;;;;;5013483;28;1148;-72
2022/09/22 08:37:22;;;;;;;;;;;;;;;;;;5028112;28;1500;-72
2022/09/22 08:39:48;;;;;;;;;;;;;;;;;;5012633;28;1922;-72
2022/09/22 08:42:19;;;;;;;;;;;;;;;;;;5014338;28;1197;-72
2022/09/22 08:44:48;;;;;;;;;;;;;;;;;;5014033;28;1088;-73
2022/09/22 08:47:15;;;;;;;;;;;;;;;;;;5027397;28;1497;-71
2022/09/22 08:52:29;;;;;;;;;;;;;;;;;;5013078;28;1541;-73
2022/09/22 08:54:58;;;;;;;;;;;;;;;;;;5013254;28;1431;-72
2022/09/22 08:57:31;;;;;;;;;;;;;;;;;;5080125;22;1868;-76
2022/09/22 09:00:01;;;;;;;;;;;;;;;;;;5083136;28;1910;-76
2022/09/22 09:02:35;;;;;;;;;;;;;;;;;;5080598;28;1481;-77
2022/09/22 09:05:16;;;;;;;;;;;;;;;;;;5085036;28;1244;-76
2022/09/22 09:07:45;;;;;;;;;;;;;;;;;;5048537;28;1278;-76
2022/09/22 09:10:18;;;;;;;;;;;;;;;;;;5055181;28;1279;-77
2022/09/22 09:12:48;;;;;;;;;;;;;;;;;;5070226;28;1491;-75
2022/09/22 09:15:26;;;;;;;;;;;;;;;;;;5058989;28;1411;-76
2022/09/22 09:17:53;;;;;;;;;;;;;;;;;;5078884;28;1971;-76
2022/09/22 09:20:20;;;;;;;;;;;;;;;;;;5078873;28;1269;-76
2022/09/22 09:22:48;;;;;;;;;;;;;;;;;;5059370;28;1467;-75
2022/09/22 09:25:15;;;;;;;;;;;;;;;;;;5073347;28;1172;-76
2022/09/22 09:27:41;;;;;;;;;;;;;;;;;;5066023;28;1510;-75
2022/09/22 09:30:10;;;;;;;;;;;;;;;;;;5077068;28;1360;-75
2022/09/22 09:32:37;;;;;;;;;;;;;;;;;;5052300;28;1493;-76
2022/09/22 09:35:04;;;;;;;;;;;;;;;;;;5079860;28;1298;-75
2022/09/22 09:37:30;;;;;;;;;;;;;;;;;;5092437;28;1406;-75
2022/09/22 09:39:58;;;;;;;;;;;;;;;;;;5092544;28;1918;-75
2022/09/22 09:42:24;;;;;;;;;;;;;;;;;;5073457;28;1265;-75
2022/09/22 09:44:52;;;;;;;;;;;;;;;;;;5079351;28;1396;-76
2022/09/22 09:47:21;;;;;;;;;;;;;;;;;;5077411;28;1372;-76
2022/09/22 09:49:49;;;;;;;;;;;;;;;;;;5071054;28;1494;-75
2022/09/22 09:52:15;;;;;;;;;;;;;;;;;;5080518;28;1885;-76
2022/09/22 09:54:42;;;;;;;;;;;;;;;;;;5083802;28;1621;-75
2022/09/22 09:57:10;;;;;;;;;;;;;;;;;;5091890;28;1323;-75
2022/09/22 10:02:21;;;;;;;;;;;;;;;;;;5085883;28;1539;-76
2022/09/22 10:04:48;;;;;;;;;;;;;;;;;;5056083;28;1503;-75
2022/09/22 10:07:15;;;;;;;;;;;;;;;;;;5054143;28;1450;-76
2022/09/22 10:09:42;;;;;;;;;;;;;;;;;;5076471;28;1173;-74
2022/09/22 10:12:19;;;;;;;;;;;;;;;;;;5071145;28;778;-75
2022/09/22 10:14:48;;;;;;;;;;;;;;;;;;5071538;28;1174;-74
2022/09/22 10:17:18;;;;;;;;;;;;;;;;;;5049902;28;1423;-76
2022/09/22 10:19:44;;;;;;;;;;;;;;;;;;5083083;28;1979;-76
2022/09/22 10:22:17;;;;;;;;;;;;;;;;;;5073403;28;1312;-75
2022/09/22 10:24:52;;;;;;;;;;;;;;;;;;5062140;28;1422;-75
2022/09/22 10:27:22;;;;;;;;;;;;;;;;;;5083291;28;1342;-76
2022/09/22 10:29:57;;;;;;;;;;;;;;;;;;5075092;28;1506;-76
2022/09/22 10:32:23;;;;;;;;;;;;;;;;;;5071045;28;1411;-76
2022/09/22 10:34:50;;;;;;;;;;;;;;;;;;5087560;28;1216;-76
2022/09/22 10:37:17;;;;;;;;;;;;;;;;;;5091584;28;1344;-77
2022/09/22 10:39:44;;;;;;;;;;;;;;;;;;5077438;28;1906;-76
2022/09/22 10:42:31;;;;;;;;;;;;;;;;;;5070765;28;1384;-77
2022/09/22 10:45:00;;;;;;;;;;;;;;;;;;5082177;28;1414;-76
2022/09/22 10:47:28;;;;;;;;;;;;;;;;;;5052785;28;1314;-76
2022/09/22 10:49:58;;;;;;;;;;;;;;;;;;5074098;28;1471;-76
2022/09/22 10:52:25;;;;;;;;;;;;;;;;;;5076110;28;1150;-76
2022/09/22 10:54:55;;;;;;;;;;;;;;;;;;5046795;28;1535;-76
2022/09/22 10:57:28;;;;;;;;;;;;;;;;;;5054956;28;1409;-76
2022/09/22 11:00:04;;;;;;;;;;;;;;;;;;5069978;28;1922;-76
2022/09/22 11:02:43;;;;;;;;;;;;;;;;;;5090870;28;1110;-76
2022/09/22 11:05:17;;;;;;;;;;;;;;;;;;5091499;28;1410;-76
2022/09/22 11:13:22;;;;;;;;;;;;;;;;;;5073003;28;1024;-76
2022/09/22 11:15:56;;;;;;;;;;;;;;;;;;5091339;28;1059;-76
2022/09/22 11:18:38;;;;;;;;;;;;;;;;;;5073100;28;1604;-76
2022/09/22 11:21:07;;;;;;;;;;;;;;;;;;5091242;28;1146;-76
2022/09/22 11:23:43;;;;;;;;;;;;;;;;;;5035688;28;1644;-76
2022/09/22 11:26:15;;;;;;;;;;;;;;;;;;5054527;28;1511;-76
2022/09/22 11:28:44;;;;;;;;;;;;;;;;;;5061472;28;1432;-76
2022/09/22 11:31:12;;;;;;;;;;;;;;;;;;5041680;28;1247;-76
2022/09/22 11:33:43;;;;;;;;;;;;;;;;;;5051316;28;937;-76
2022/09/22 11:36:14;;;;;;;;;;;;;;;;;;5054717;28;1278;-75
2022/09/22 11:38:48;;;;;;;;;;;;;;;;;;5036793;28;1993;-76
2022/09/22 11:41:20;;;;;;;;;;;;;;;;;;5054790;28;1276;-77
2022/09/22 11:43:50;;;;;;;;;;;;;;;;;;5054900;28;1012;-76
2022/09/22 11:46:20;;;;;;;;;;;;;;;;;;5057903;28;1403;-77
2022/09/22 11:48:50;;;;;;;;;;;;;;;;;;5041453;28;1064;-76
2022/09/22 11:51:23;;;;;;;;;;;;;;;;;;5066860;28;1459;-76
2022/09/22 11:53:53;;;;;;;;;;;;;;;;;;5066175;28;1416;-75
2022/09/22 11:56:25;;;;;;;;;;;;;;;;;;5067663;28;1392;-76
2022/09/22 11:58:52;;;;;;;;;;;;;;;;;;5094626;28;1914;-76
2022/09/22 12:01:21;;;;;;;;;;;;;;;;;;5084360;28;1463;-75
2022/09/22 12:03:48;;;;;;;;;;;;;;;;;;5072001;28;1174;-76
2022/09/22 12:06:15;;;;;;;;;;;;;;;;;;5084079;28;1479;-76
2022/09/22 12:08:42;;;;;;;;;;;;;;;;;;5079733;28;1411;-76
2022/09/22 12:11:09;;;;;;;;;;;;;;;;;;5082306;28;1213;-76
2022/09/22 12:13:35;;;;;;;;;;;;;;;;;;5078818;28;1466;-76
2022/09/22 12:16:04;;;;;;;;;;;;;;;;;;5067698;28;1332;-76
2022/09/22 12:18:34;;;;;;;;;;;;;;;;;;5075821;28;1562;-77
2022/09/22 12:21:01;;;;;;;;;;;;;;;;;;5073534;28;1914;-76
2022/09/22 12:23:32;;;;;;;;;;;;;;;;;;5093907;28;953;-77
2022/09/22 12:25:59;;;;;;;;;;;;;;;;;;5094090;28;1255;-76
2022/09/22 12:28:26;;;;;;;;;;;;;;;;;;5060437;28;1435;-77
2022/09/22 12:30:58;;;;;;;;;;;;;;;;;;5090252;28;1173;-77
2022/09/22 12:33:25;;;;;;;;;;;;;;;;;;5093679;28;798;-77
2022/09/22 12:35:53;;;;;;;;;;;;;;;;;;5089392;28;1474;-78
2022/09/22 12:38:20;;;;;;;;;;;;;;;;;;5081865;28;1430;-76
2022/09/22 12:40:47;;;;;;;;;;;;;;;;;;5078773;28;2037;-77
2022/09/22 12:43:13;;;;;;;;;;;;;;;;;;5082223;28;1304;-77
2022/09/22 12:45:40;;;;;;;;;;;;;;;;;;5068642;28;1165;-77
2022/09/22 12:48:08;;;;;;;;;;;;;;;;;;5088551;28;1387;-77
2022/09/22 12:50:36;;;;;;;;;;;;;;;;;;5058912;28;1648;-76
2022/09/22 12:53:04;;;;;;;;;;;;;;;;;;5075670;28;1137;-78
2022/09/22 12:55:37;;;;;;;;;;;;;;;;;;5065987;28;1474;-77
2022/09/22 12:58:03;;;;;;;;;;;;;;;;;;5071810;28;1411;-77
2022/09/22 13:00:34;;;;;;;;;;;;;;;;;;5078590;28;1918;-77
2022/09/22 13:03:01;;;;;;;;;;;;;;;;;;5075824;28;1152;-77
2022/09/22 13:05:34;;;;;;;;;;;;;;;;;;5073497;28;1060;-76
2022/09/22 13:08:00;;;;;;;;;;;;;;;;;;5073244;28;1402;-78
2022/09/22 13:10:49;;;;;;;;;;;;;;;;;;5073186;28;1067;-78
2022/09/22 13:13:23;;;;;;;;;;;;;;;;;;5073045;28;1072;-77
2022/09/22 13:15:58;;;;;;;;;;;;;;;;;;5073250;28;1067;-76
2022/09/22 13:18:27;;;;;;;;;;;;;;;;;;5073126;28;834;-78
2022/09/22 13:20:53;;;;;;;;;;;;;;;;;;5072992;28;1918;-77
2022/09/22 13:23:19;;;;;;;;;;;;;;;;;;5072779;28;1075;-78
2022/09/22 13:25:49;;;;;;;;;;;;;;;;;;5073160;28;813;-77
2022/09/22 13:28:16;;;;;;;;;;;;;;;;;;5054815;28;1254;-77
2022/09/22 13:30:43;;;;;;;;;;;;;;;;;;5069617;28;1419;-77
2022/09/22 13:33:19;;;;;;;;;;;;;;;;;;5054166;28;1467;-79
2022/09/22 13:35:45;;;;;;;;;;;;;;;;;;5035510;28;1013;-78
2022/09/22 13:38:12;;;;;;;;;;;;;;;;;;5052550;28;1301;-78
2022/09/22 13:40:38;;;;;;;;;;;;;;;;;;5052956;28;1910;-76
2022/09/22 13:43:06;;;;;;;;;;;;;;;;;;5052419;28;921;-78
2022/09/22 13:45:32;;;;;;;;;;;;;;;;;;5052571;28;741;-78
2022/09/22 13:48:00;;;;;;;;;;;;;;;;;;5052356;28;1297;-78
2022/09/22 13:50:26;;;;;;;;;;;;;;;;;;5034920;28;1551;-77
2022/09/22 13:52:52;;;;;;;;;;;;;;;;;;5035709;28;1283;-76
2022/09/22 13:55:21;;;;;;;;;;;;;;;;;;5036079;28;1191;-77
2022/09/22 13:57:47;;;;;;;;;;;;;;;;;;5052700;28;1298;-77
2022/09/22 14:00:19;;;;;;;;;;;;;;;;;;5052487;28;1979;-77
2022/09/22 14:02:46;;;;;;;;;;;;;;;;;;5052200;28;1015;-78
2022/09/22 14:05:16;;;;;;;;;;;;;;;;;;5052680;28;795;-78
2022/09/22 14:07:42;;;;;;;;;;;;;;;;;;5052641;28;1412;-77
2022/09/22 14:10:13;;;;;;;;;;;;;;;;;;5052684;28;953;-78
2022/09/22 14:12:39;;;;;;;;;;;;;;;;;;5034381;28;1045;-77
2022/09/22 14:15:24;;;;;;;;;;;;;;;;;;5052108;28;1196;-78
2022/09/22 14:17:52;;;;;;;;;;;;;;;;;;5051917;28;1293;-77
2022/09/22 14:20:18;;;;;;;;;;;;;;;;;;5067022;28;1909;-77
2022/09/22 14:22:44;;;;;;;;;;;;;;;;;;5050679;28;1490;-76
2022/09/22 14:25:20;;;;;;;;;;;;;;;;;;5071301;28;1645;-77
2022/09/22 14:27:50;;;;;;;;;;;;;;;;;;5066323;28;1449;-77
2022/09/22 14:30:17;;;;;;;;;;;;;;;;;;5085277;28;1244;-76
2022/09/22 14:32:46;;;;;;;;;;;;;;;;;;5072177;28;1737;-77
2022/09/22 14:35:17;;;;;;;;;;;;;;;;;;5075217;28;1337;-77
2022/09/22 14:37:45;;;;;;;;;;;;;;;;;;5056887;28;1527;-76
2022/09/22 14:40:14;;;;;;;;;;;;;;;;;;5062128;28;1970;-76
2022/09/22 14:42:40;;;;;;;;;;;;;;;;;;5083005;28;1145;-77
2022/09/22 14:45:20;;;;;;;;;;;;;;;;;;5061069;28;1478;-76
2022/09/22 14:47:47;;;;;;;;;;;;;;;;;;5076116;28;1499;-76
2022/09/22 14:50:18;;;;;;;;;;;;;;;;;;5076732;28;1071;-77
2022/09/22 14:52:55;;;;;;;;;;;;;;;;;;5069013;28;1575;-78
2022/09/22 14:55:27;;;;;;;;;;;;;;;;;;5071199;28;1633;-77
2022/09/22 14:57:54;;;;;;;;;;;;;;;;;;5059130;28;1685;-78
2022/09/22 15:03:05;;;;;;;;;;;;;;;;;;5048688;28;1498;-77
2022/09/22 15:05:33;;;;;;;;;;;;;;;;;;5071977;28;1530;-75
2022/09/22 15:08:00;;;;;;;;;;;;;;;;;;5075017;28;1589;-77
2022/09/22 15:10:27;;;;;;;;;;;;;;;;;;5079599;28;1284;-78
2022/09/22 15:12:54;;;;;;;;;;;;;;;;;;5050791;28;1571;-76
2022/09/22 15:15:21;;;;;;;;;;;;;;;;;;5068886;28;1072;-77
2022/09/22 15:20:33;;;;;;;;;;;;;;;;;;5070504;28;1973;-77
2022/09/22 15:23:00;;;;;;;;;;;;;;;;;;5066321;28;1448;-76
2022/09/22 15:25:26;;;;;;;;;;;;;;;;;;5069676;28;1181;-77
2022/09/22 15:27:52;;;;;;;;;;;;;;;;;;5068917;28;1398;-77
2022/09/22 15:30:19;;;;;;;;;;;;;;;;;;5053766;28;1499;-77
2022/09/22 15:32:47;;;;;;;;;;;;;;;;;;5050498;28;1594;-76
2022/09/22 15:35:13;;;;;;;;;;;;;;;;;;5079628;28;1165;-77
2022/09/22 15:37:42;;;;;;;;;;;;;;;;;;5088876;28;1444;-77
2022/09/22 15:40:16;;;;;;;;;;;;;;;;;;5064459;28;1922;-77
2022/09/22 15:42:43;;;;;;;;;;;;;;;;;;5074706;28;1389;-78
2022/09/22 15:45:10;;;;;;;;;;;;;;;;;;5056278;28;1467;-78
2022/09/22 15:47:37;;;;;;;;;;;;;;;;;;5070284;28;1533;-78
2022/09/22 15:50:04;;;;;;;;;;;;;;;;;;5075246;28;1127;-78
2022/09/22 15:52:30;;;;;;;;;;;;;;;;;;5068613;28;1533;-78
2022/09/22 15:54:58;;;;;;;;;;;;;;;;;;5081085;28;1172;-77
2022/09/22 15:57:24;;;;;;;;;;;;;;;;;;5088540;28;1329;-79
2022/09/22 15:59:52;;;;;;;;;;;;;;;;;;5074288;28;1458;-77
2022/09/22 16:02:19;;;;;;;;;;;;;;;;;;5051981;28;1922;-79
2022/09/22 16:04:45;;;;;;;;;;;;;;;;;;5080211;28;1411;-77
2022/09/22 16:07:12;;;;;;;;;;;;;;;;;;5076362;28;1392;-78
2022/09/22 16:09:38;;;;;;;;;;;;;;;;;;5074136;28;1400;-78
2022/09/22 16:12:09;;;;;;;;;;;;;;;;;;5048515;28;1475;-79
2022/09/22 16:14:41;;;;;;;;;;;;;;;;;;5071517;28;1403;-78
2022/09/22 16:17:07;;;;;;;;;;;;;;;;;;5077660;28;1418;-78
2022/09/22 16:19:33;;;;;;;;;;;;;;;;;;5082497;28;1177;-78
2022/09/22 16:21:59;;;;;;;;;;;;;;;;;;5070246;28;1989;-78
2022/09/22 16:24:27;;;;;;;;;;;;;;;;;;5065348;28;1143;-78
2022/09/22 16:26:54;;;;;;;;;;;;;;;;;;5084302;28;1470;-79
2022/09/22 16:29:23;;;;;;;;;;;;;;;;;;5078296;28;1519;-77
2022/09/22 16:31:50;;;;;;;;;;;;;;;;;;5074275;28;1137;-76
2022/09/22 16:34:16;;;;;;;;;;;;;;;;;;5076799;28;1375;-77
2022/09/22 16:36:43;;;;;;;;;;;;;;;;;;5065774;28;1357;-77
2022/09/22 16:39:09;;;;;;;;;;;;;;;;;;5055569;28;1438;-78
2022/09/22 16:41:36;;;;;;;;;;;;;;;;;;5082851;28;1906;-78
2022/09/22 16:44:02;;;;;;;;;;;;;;;;;;5068289;28;1486;-77
2022/09/22 16:46:32;;;;;;;;;;;;;;;;;;5073084;28;1410;-78
2022/09/22 16:48:59;;;;;;;;;;;;;;;;;;5073888;28;1529;-77
2022/09/22 16:51:25;;;;;;;;;;;;;;;;;;5087732;28;1122;-78
2022/09/22 16:53:52;;;;;;;;;;;;;;;;;;5084351;28;1388;-77
2022/09/22 16:56:18;;;;;;;;;;;;;;;;;;5082986;28;1367;-77
2022/09/22 16:58:44;;;;;;;;;;;;;;;;;;5079979;28;1451;-77
2022/09/22 17:01:14;;;;;;;;;;;;;;;;;;5063993;28;1975;-77
2022/09/22 17:03:41;;;;;;;;;;;;;;;;;;5085783;28;1768;-76
2022/09/22 17:06:08;;;;;;;;;;;;;;;;;;5071219;28;1358;-76
2022/09/22 17:08:36;;;;;;;;;;;;;;;;;;5077388;28;1466;-77
2022/09/22 17:11:04;;;;;;;;;;;;;;;;;;5088679;28;1114;-77
2022/09/22 17:13:32;;;;;;;;;;;;;;;;;;5082331;28;1411;-77
2022/09/22 17:16:06;;;;;;;;;;;;;;;;;;5072648;28;1547;-77
2022/09/22 17:18:37;;;;;;;;;;;;;;;;;;5053371;28;1150;-77
2022/09/22 17:21:05;;;;;;;;;;;;;;;;;;5070852;28;1910;-77
2022/09/22 17:23:32;;;;;;;;;;;;;;;;;;5070423;28;1084;-78
2022/09/22 17:25:58;;;;;;;;;;;;;;;;;;5052785;28;1304;-77
2022/09/22 17:28:24;;;;;;;;;;;;;;;;;;5071686;28;1518;-76
2022/09/22 17:30:56;;;;;;;;;;;;;;;;;;5078560;28;1106;-76